| Date | Time | Temp. (oF) | Dew Point (oF) | Rel. Hum. (%) | Press. (in.) | Wind Dir. | Wind Speed (mph) | Hourly Rainfall (in.) |
|
|---|---|---|---|---|---|---|---|---|---|
| 1 | 10/30 | 00:00 | 44 | 39 | 85 | 30.02 | WSW | 1 | 0.00 |
| 2 | 10/29 | 23:00 | 47 | 41 | 80 | 29.99 | WSW | 2 | 0.00 |
| 3 | 10/29 | 22:00 | 48 | 44 | 88 | 29.97 | SW | 0 | 0.00 |
| 4 | 10/29 | 21:00 | 47 | 46 | 97 | 29.94 | SW | 3 | 0.00 |
| 5 | 10/29 | 20:00 | 47 | 46 | 98 | 29.92 | WSW | 1 | 0.00 |
| 6 | 10/29 | 19:00 | 48 | 47 | 97 | 29.90 | SSW | 2 | 0.00 |
| 7 | 10/29 | 18:00 | 50 | 48 | 93 | 29.87 | SSW | 3 | 0.00 |
| 8 | 10/29 | 17:00 | 53 | 49 | 89 | 29.83 | SW | 3 | 0.00 |
| 9 | 10/29 | 16:00 | 52 | 50 | 94 | 29.79 | SW | 3 | 0.00 |
| 10 | 10/29 | 15:00 | 52 | 51 | 98 | 29.77 | SSW | 6 | 0.00 |
| 11 | 10/29 | 14:00 | 51 | 50 | 98 | 29.74 | SW | 4 | 0.00 |
| 12 | 10/29 | 13:00 | 51 | 50 | 99 | 29.72 | SSW | 2 | 0.00 |
| 13 | 10/29 | 12:00 | 51 | 50 | 100 | 29.70 | SW | 4 | 0.00 |
| 14 | 10/29 | 11:00 | 50 | 50 | 100 | 29.69 | SW | 3 | 0.00 |
| 15 | 10/29 | 10:00 | 48 | 48 | 100 | 29.67 | WSW | 5 | 0.00 |
| 16 | 10/29 | 09:00 | 47 | 46 | 100 | 29.66 | WSW | 3 | 0.02 |
| 17 | 10/29 | 08:00 | 47 | 46 | 100 | 29.66 | W | 1 | 0.13 |
| 18 | 10/29 | 07:00 | 47 | 46 | 100 | 29.66 | NW | 0 | 0.24 |
| 19 | 10/29 | 06:00 | 46 | 45 | 100 | 29.65 | WNW | 2 | 0.11 |
| 20 | 10/29 | 05:00 | 46 | 45 | 100 | 29.67 | W | 4 | 0.08 |
| 21 | 10/29 | 04:00 | 47 | 46 | 100 | 29.68 | WNW | 4 | 0.10 |
| 22 | 10/29 | 03:00 | 46 | 45 | 100 | 29.69 | NNW | 6 | 0.06 |
| 23 | 10/29 | 02:00 | 46 | 45 | 100 | 29.74 | NNW | 4 | 0.07 |
| 24 | 10/29 | 01:00 | 47 | 46 | 100 | 29.77 | WNW | 3 | 0.10 |